createdAt,value
2022-09-20T00:01:35.819Z,87.91
2022-09-20T00:04:05.407Z,87.93
2022-09-20T00:06:33.309Z,87.99
2022-09-20T00:09:01.233Z,87.93
2022-09-20T00:11:30.438Z,87.92
2022-09-20T00:13:58.715Z,88.20
2022-09-20T00:16:28.383Z,88.37
2022-09-20T00:18:57.848Z,88.32
2022-09-20T00:21:27.093Z,88.37
2022-09-20T00:23:53.975Z,88.05
2022-09-20T00:26:20.727Z,87.67
2022-09-20T00:28:47.281Z,87.84
2022-09-20T00:31:14.673Z,87.91
2022-09-20T00:34:00.120Z,88.03
2022-09-20T00:36:27.418Z,88.03
2022-09-20T00:38:59.093Z,87.79
2022-09-20T00:41:25.969Z,87.73
2022-09-20T00:43:52.722Z,87.79
2022-09-20T00:46:34.194Z,87.69
2022-09-20T00:49:22.290Z,87.97
2022-09-20T00:51:55.293Z,87.91
2022-09-20T00:54:23.875Z,87.89
2022-09-20T00:56:51.545Z,88.25
2022-09-20T00:59:30.449Z,88.37
2022-09-20T01:02:06.483Z,88.49
2022-09-20T01:04:34.879Z,88.29
2022-09-20T01:07:04.157Z,88.56
2022-09-20T01:09:30.474Z,88.63
2022-09-20T01:11:58.161Z,88.75
2022-09-20T01:14:26.226Z,88.90
2022-09-20T01:16:56.232Z,89.19
2022-09-20T01:19:39.938Z,89.13
2022-09-20T01:22:17.305Z,89.21
2022-09-20T01:24:58.629Z,89.17
2022-09-20T01:27:47.495Z,89.22
2022-09-20T01:30:20.598Z,89.57
2022-09-20T01:33:18.722Z,89.45
2022-09-20T01:35:50.018Z,89.45
2022-09-20T01:38:40.771Z,89.46
2022-09-20T01:41:34.221Z,89.38
2022-09-20T01:44:09.616Z,89.40
2022-09-20T01:46:37.073Z,89.16
2022-09-20T01:49:24.912Z,89.17
2022-09-20T01:52:13.245Z,89.30
2022-09-20T01:55:13.461Z,89.26
2022-09-20T01:58:17.763Z,89.19
2022-09-20T02:01:18.260Z,89.17
2022-09-20T02:04:06.611Z,88.95
2022-09-20T02:07:07.218Z,89.03
2022-09-20T02:10:18.773Z,89.09
2022-09-20T02:12:59.207Z,89.09
2022-09-20T02:15:47.454Z,89.28
2022-09-20T02:18:32.032Z,89.08
2022-09-20T02:21:05.270Z,89.37
2022-09-20T02:23:41.476Z,89.10
2022-09-20T02:26:37.497Z,89.08
2022-09-20T02:29:51.561Z,89.02
2022-09-20T02:32:55.282Z,89.19
2022-09-20T02:35:39.346Z,89.21
2022-09-20T02:38:39.661Z,89.33
2022-09-20T02:41:34.584Z,89.38
2022-09-20T02:44:28.856Z,89.42
2022-09-20T02:47:07.392Z,89.57
2022-09-20T02:49:53.962Z,89.68
2022-09-20T02:52:36.088Z,89.49
2022-09-20T02:55:05.251Z,89.70
2022-09-20T02:57:41.411Z,89.92
2022-09-20T03:00:14.749Z,89.97
2022-09-20T03:02:53.369Z,90.23
2022-09-20T03:05:26.137Z,90.18
2022-09-20T03:08:22.754Z,90.51
2022-09-20T03:11:32.542Z,90.66
2022-09-20T03:14:24.295Z,90.86
2022-09-20T03:17:14.407Z,90.84
2022-09-20T03:19:46.587Z,90.95
2022-09-20T03:22:41.847Z,91.11
2022-09-20T03:25:55.654Z,91.33
2022-09-20T03:28:31.011Z,91.38
2022-09-20T03:31:12.243Z,91.57
2022-09-20T03:33:44.554Z,91.97
2022-09-20T03:36:25.792Z,91.98
2022-09-20T03:39:11.036Z,92.01
2022-09-20T03:41:50.541Z,91.66
2022-09-20T03:44:32.242Z,91.92
2022-09-20T03:47:25.942Z,91.72
2022-09-20T03:50:16.245Z,91.86
2022-09-20T03:53:14.823Z,91.79
2022-09-20T03:55:57.161Z,92.15
2022-09-20T03:58:24.201Z,92.13
2022-09-20T04:01:20.010Z,92.00
2022-09-20T04:04:00.719Z,92.24
2022-09-20T04:06:40.605Z,92.06
2022-09-20T04:09:33.745Z,92.15
2022-09-20T04:12:19.961Z,92.43
2022-09-20T04:14:47.456Z,92.16
2022-09-20T04:17:42.715Z,92.16
2022-09-20T04:20:12.147Z,92.25
2022-09-20T04:22:40.237Z,92.31
2022-09-20T04:25:15.545Z,92.23
2022-09-20T04:27:54.457Z,91.94
2022-09-20T04:30:29.502Z,92.05
2022-09-20T04:33:05.089Z,92.35
2022-09-20T04:36:00.709Z,92.27
2022-09-20T04:38:27.928Z,92.20
2022-09-20T04:41:38.137Z,92.95
2022-09-20T04:44:22.682Z,92.59
2022-09-20T04:46:56.190Z,92.70
2022-09-20T04:49:44.720Z,93.00
2022-09-20T04:52:36.137Z,93.00
2022-09-20T04:55:05.448Z,93.23
2022-09-20T04:57:34.751Z,93.47
2022-09-20T05:00:16.714Z,93.56
2022-09-20T05:03:01.683Z,93.64
2022-09-20T05:05:53.113Z,93.48
2022-09-20T05:08:41.051Z,93.49
2022-09-20T05:11:26.747Z,93.36
2022-09-20T05:14:12.920Z,93.43
2022-09-20T05:17:07.132Z,93.35
2022-09-20T05:19:44.780Z,93.48
2022-09-20T05:22:29.891Z,93.09
2022-09-20T05:25:15.955Z,92.87
2022-09-20T05:28:00.001Z,93.00
2022-09-20T05:30:43.305Z,92.96
2022-09-20T05:33:28.208Z,92.87
2022-09-20T05:36:10.853Z,92.78
2022-09-20T05:39:03.521Z,93.09
2022-09-20T05:41:41.013Z,93.05
2022-09-20T05:44:25.609Z,93.25
2022-09-20T05:47:29.106Z,93.11
2022-09-20T05:50:04.516Z,93.14
2022-09-20T05:52:54.477Z,92.83
2022-09-20T05:55:30.100Z,92.96
2022-09-20T05:58:28.142Z,92.93
2022-09-20T06:01:03.478Z,92.83
2022-09-20T06:03:55.566Z,92.96
2022-09-20T06:06:46.990Z,93.42
2022-09-20T06:09:51.070Z,93.14
2022-09-20T06:12:43.658Z,93.22
2022-09-20T06:15:38.645Z,93.45
2022-09-20T06:18:17.190Z,93.51
2022-09-20T06:20:57.951Z,93.58
2022-09-20T06:23:25.001Z,93.51
2022-09-20T06:26:02.825Z,93.59
2022-09-20T06:28:39.418Z,93.50
2022-09-20T06:31:11.318Z,93.72
2022-09-20T06:33:47.212Z,93.73
2022-09-20T06:36:39.988Z,93.71
2022-09-20T06:39:38.282Z,93.45
2022-09-20T06:42:05.373Z,93.57
2022-09-20T06:44:31.719Z,93.21
2022-09-20T06:46:58.261Z,93.36
2022-09-20T06:49:25.777Z,93.18
2022-09-20T06:51:52.395Z,93.37
2022-09-20T06:54:21.202Z,93.15
2022-09-20T06:56:51.185Z,92.89
2022-09-20T06:59:17.591Z,93.18
2022-09-20T07:01:44.733Z,92.97
2022-09-20T07:04:11.197Z,92.93
2022-09-20T07:06:37.797Z,92.92
2022-09-20T07:09:05.817Z,92.72
2022-09-20T07:11:34.174Z,92.52
2022-09-20T07:14:01.270Z,92.30
2022-09-20T07:16:27.724Z,91.84
2022-09-20T07:18:54.354Z,91.66
2022-09-20T07:21:21.484Z,91.54
2022-09-20T07:23:48.579Z,91.07
2022-09-20T07:26:28.304Z,90.97
2022-09-20T07:28:55.388Z,90.55
2022-09-20T07:31:23.668Z,89.83
2022-09-20T07:33:50.326Z,89.11
2022-09-20T07:36:17.185Z,88.45
2022-09-20T07:38:48.550Z,88.01
2022-09-20T07:41:14.873Z,88.13
2022-09-20T07:43:41.216Z,88.20
2022-09-20T07:46:07.593Z,88.33
2022-09-20T07:48:36.704Z,88.23
2022-09-20T07:51:13.828Z,88.13
2022-09-20T07:53:40.917Z,87.69
2022-09-20T07:56:15.811Z,87.43
2022-09-20T07:58:43.163Z,86.92
2022-09-20T08:01:12.593Z,86.78
2022-09-20T08:03:39.587Z,86.62
2022-09-20T08:06:11.869Z,85.81
2022-09-20T08:08:40.660Z,85.27
2022-09-20T08:11:10.503Z,84.54
2022-09-20T08:16:30.810Z,84.25
2022-09-20T08:18:59.526Z,84.40
2022-09-20T08:21:31.411Z,83.84
2022-09-20T08:23:58.882Z,83.78
2022-09-20T08:26:26.943Z,83.51
2022-09-20T08:28:56.099Z,83.75
2022-09-20T08:31:25.244Z,83.38
2022-09-20T08:33:52.663Z,82.90
2022-09-20T08:36:22.407Z,83.02
2022-09-20T08:41:46.077Z,82.70
2022-09-20T08:44:29.550Z,82.54
2022-09-20T08:47:19.201Z,82.02
2022-09-20T08:49:46.714Z,81.96
2022-09-20T08:52:20.924Z,81.75
2022-09-20T08:54:47.423Z,81.07
2022-09-20T08:57:20.153Z,80.49
2022-09-20T08:59:46.676Z,80.17
2022-09-20T09:02:19.507Z,79.21
2022-09-20T09:04:46.543Z,78.23
2022-09-20T09:07:15.228Z,77.03
2022-09-20T09:09:47.296Z,76.77
2022-09-20T09:12:20.804Z,75.85
2022-09-20T09:14:55.247Z,74.69
2022-09-20T09:17:28.142Z,74.64
2022-09-20T09:19:59.941Z,74.03
2022-09-20T09:22:39.566Z,72.77
2022-09-20T09:25:27.733Z,71.80
2022-09-20T09:27:58.944Z,71.44
2022-09-20T09:30:38.994Z,71.03
2022-09-20T09:33:28.176Z,70.63
2022-09-20T09:36:03.618Z,71.44
2022-09-20T09:38:38.645Z,70.62
2022-09-20T09:41:25.198Z,69.91
2022-09-20T09:44:18.911Z,69.96
2022-09-20T09:46:45.825Z,70.71
2022-09-20T09:49:16.735Z,70.37
2022-09-20T09:52:06.001Z,70.63
2022-09-20T09:54:37.307Z,72.76
2022-09-20T09:57:16.248Z,71.28
2022-09-20T10:00:22.296Z,70.82
2022-09-20T10:03:07.005Z,70.44
2022-09-20T10:05:44.102Z,70.29
2022-09-20T10:08:20.825Z,71.05
2022-09-20T10:10:47.144Z,71.06
2022-09-20T10:13:40.305Z,71.23
2022-09-20T10:16:25.159Z,72.32
2022-09-20T10:19:06.915Z,72.67
2022-09-20T10:21:43.490Z,72.63
2022-09-20T10:24:21.438Z,72.51
2022-09-20T10:26:57.667Z,72.62
2022-09-20T10:29:54.760Z,72.68
2022-09-20T10:32:32.948Z,71.85
2022-09-20T10:35:18.079Z,71.51
2022-09-20T10:38:02.022Z,71.30
2022-09-20T10:41:18.020Z,70.34
2022-09-20T10:44:10.331Z,67.19
2022-09-20T10:47:03.142Z,66.22
2022-09-20T10:49:41.643Z,65.65
2022-09-20T10:52:38.874Z,65.80
2022-09-20T10:55:11.194Z,64.01
2022-09-20T10:58:03.344Z,64.00
2022-09-20T11:00:48.740Z,64.40
2022-09-20T11:03:56.361Z,63.60
2022-09-20T11:06:54.673Z,63.35
2022-09-20T11:09:25.719Z,62.41
2022-09-20T11:12:12.407Z,62.78
2022-09-20T11:14:48.342Z,61.78
2022-09-20T11:18:06.696Z,61.89
2022-09-20T11:20:46.426Z,61.30
2022-09-20T11:23:30.514Z,60.62
2022-09-20T11:26:09.812Z,60.60
2022-09-20T11:28:52.728Z,59.99
2022-09-20T11:31:25.421Z,61.24
2022-09-20T11:34:01.882Z,60.79
2022-09-20T11:36:42.733Z,59.19
2022-09-20T11:39:14.207Z,57.14
2022-09-20T11:41:42.080Z,55.93
2022-09-20T11:44:15.752Z,56.14
2022-09-20T11:47:01.661Z,56.46
2022-09-20T11:49:46.877Z,55.58
2022-09-20T11:52:32.740Z,55.29
2022-09-20T11:55:15.078Z,55.69
2022-09-20T11:57:42.005Z,55.89
2022-09-20T12:00:10.155Z,55.19
2022-09-20T12:02:50.808Z,54.41
2022-09-20T12:05:33.810Z,54.83
2022-09-20T12:08:02.021Z,56.02
2022-09-20T12:10:33.934Z,54.69
2022-09-20T12:13:03.517Z,53.23
2022-09-20T12:15:32.842Z,53.39
2022-09-20T12:17:59.478Z,53.70
2022-09-20T12:20:34.714Z,54.03
2022-09-20T12:23:42.202Z,55.27
2022-09-20T12:26:13.933Z,55.86
2022-09-20T12:28:43.698Z,56.08
2022-09-20T12:31:21.593Z,57.23
2022-09-20T12:34:13.267Z,56.85
2022-09-20T12:36:44.767Z,55.71
2022-09-20T12:39:11.099Z,55.04
2022-09-20T12:41:58.460Z,55.01
2022-09-20T12:44:39.994Z,54.87
2022-09-20T12:47:12.220Z,53.92
2022-09-20T12:50:06.380Z,53.74
2022-09-20T12:52:53.394Z,53.93
2022-09-20T12:55:41.230Z,54.12
2022-09-20T12:58:14.053Z,53.86
2022-09-20T13:00:47.854Z,54.13
2022-09-20T13:03:28.706Z,55.13
2022-09-20T13:06:07.126Z,55.40
2022-09-20T13:09:01.557Z,55.90
2022-09-20T13:11:41.383Z,56.26
2022-09-20T13:14:07.652Z,55.63
2022-09-20T13:16:39.776Z,56.45
2022-09-20T13:19:19.677Z,56.27
2022-09-20T13:22:03.189Z,56.36
2022-09-20T13:24:40.120Z,57.42
2022-09-20T13:27:13.223Z,57.74
2022-09-20T13:29:42.389Z,58.79
2022-09-20T13:32:26.151Z,58.99
2022-09-20T13:35:15.396Z,60.08
2022-09-20T13:37:44.856Z,59.94
2022-09-20T13:40:34.942Z,60.43
2022-09-20T13:43:24.344Z,60.27
2022-09-20T13:45:57.681Z,59.61
2022-09-20T13:48:29.041Z,59.80
2022-09-20T13:50:57.240Z,59.61
2022-09-20T13:53:40.571Z,59.35
2022-09-20T13:56:34.821Z,59.56
2022-09-20T13:59:05.252Z,60.05
2022-09-20T14:01:35.237Z,59.04
2022-09-20T14:04:16.897Z,59.41
2022-09-20T14:06:43.469Z,59.15
2022-09-20T14:09:19.080Z,59.90
2022-09-20T14:11:46.563Z,59.14
2022-09-20T14:14:22.004Z,59.82
2022-09-20T14:16:49.998Z,59.38
2022-09-20T14:19:20.140Z,58.93
2022-09-20T14:21:47.953Z,58.82
2022-09-20T14:24:14.277Z,57.22
2022-09-20T14:27:05.383Z,56.53
2022-09-20T14:29:34.818Z,54.48
2022-09-20T14:32:19.368Z,54.73
2022-09-20T14:34:55.960Z,54.77
2022-09-20T14:37:25.352Z,55.58
2022-09-20T14:39:57.610Z,53.88
2022-09-20T14:42:35.665Z,54.42
2022-09-20T14:45:05.215Z,54.49
2022-09-20T14:47:39.667Z,54.35
2022-09-20T14:50:33.557Z,55.12
2022-09-20T14:52:59.880Z,54.48
2022-09-20T14:55:28.445Z,54.99
2022-09-20T14:58:01.873Z,55.90
2022-09-20T15:00:29.717Z,56.09
2022-09-20T15:03:04.841Z,55.12
2022-09-20T15:05:31.402Z,55.55
2022-09-20T15:07:58.609Z,55.51
2022-09-20T15:10:25.451Z,55.40
2022-09-20T15:12:51.864Z,56.14
2022-09-20T15:15:18.943Z,56.35
2022-09-20T15:17:47.167Z,56.46
2022-09-20T15:20:19.552Z,56.22
2022-09-20T15:22:49.197Z,57.02
2022-09-20T15:25:18.772Z,56.94
2022-09-20T15:27:46.541Z,56.29
2022-09-20T15:30:16.374Z,56.22
2022-09-20T15:32:44.539Z,56.16
2022-09-20T15:35:17.600Z,54.98
2022-09-20T15:37:44.509Z,54.36
2022-09-20T15:40:11.356Z,53.48
2022-09-20T15:42:41.903Z,52.98
2022-09-20T15:45:09.746Z,53.63
2022-09-20T15:47:37.879Z,53.88
2022-09-20T15:50:08.307Z,53.75
2022-09-20T15:52:36.650Z,54.05
2022-09-20T15:55:03.936Z,54.42
2022-09-20T15:57:32.003Z,54.72
2022-09-20T15:59:59.382Z,54.93
2022-09-20T16:02:26.170Z,55.17
2022-09-20T16:04:55.640Z,55.91
2022-09-20T16:07:26.102Z,55.90
2022-09-20T16:09:56.598Z,55.53
2022-09-20T16:12:25.137Z,56.40
2022-09-20T16:14:51.568Z,56.86
2022-09-20T16:17:18.481Z,57.54
2022-09-20T16:19:49.764Z,57.77
2022-09-20T16:22:17.064Z,57.68
2022-09-20T16:24:44.044Z,58.11
2022-09-20T16:27:10.812Z,58.16
2022-09-20T16:29:37.509Z,58.27
2022-09-20T16:32:04.108Z,58.55
2022-09-20T16:34:32.953Z,59.22
2022-09-20T16:37:17.392Z,60.18
2022-09-20T16:39:44.637Z,57.51
2022-09-20T16:42:12.806Z,57.69
2022-09-20T16:44:44.427Z,57.99
2022-09-20T16:47:18.103Z,58.34
2022-09-20T16:49:45.601Z,58.83
2022-09-20T16:52:11.984Z,59.00
2022-09-20T16:54:38.330Z,59.59
2022-09-20T16:57:05.096Z,59.67
2022-09-20T16:59:31.447Z,60.20
2022-09-20T17:01:57.792Z,60.56
2022-09-20T17:04:24.474Z,60.66
2022-09-20T17:06:51.922Z,61.32
2022-09-20T17:09:18.809Z,62.46
2022-09-20T17:11:49.030Z,62.95
2022-09-20T17:14:19.583Z,63.44
2022-09-20T17:16:47.991Z,63.53
2022-09-20T17:19:17.679Z,63.79
2022-09-20T17:21:49.938Z,64.01
2022-09-20T17:24:18.837Z,63.97
2022-09-20T17:26:45.541Z,64.95
2022-09-20T17:29:15.227Z,65.44
2022-09-20T17:31:53.168Z,65.62
2022-09-20T17:34:21.762Z,66.24
2022-09-20T17:36:50.314Z,66.28
2022-09-20T17:39:17.313Z,66.43
2022-09-20T17:41:48.746Z,67.25
2022-09-20T17:44:16.151Z,67.60
2022-09-20T17:46:44.873Z,68.16
2022-09-20T17:49:13.500Z,69.19
2022-09-20T17:51:41.474Z,69.49
2022-09-20T17:54:08.616Z,69.74
2022-09-20T17:56:35.407Z,70.15
2022-09-20T17:59:03.613Z,70.32
2022-09-20T18:01:31.352Z,71.10
2022-09-20T18:03:59.589Z,71.64
2022-09-20T18:06:44.268Z,72.20
2022-09-20T18:09:13.724Z,72.76
2022-09-20T18:11:49.287Z,73.78
2022-09-20T18:14:17.992Z,74.26
2022-09-20T18:16:45.467Z,74.62
2022-09-20T18:19:12.501Z,75.28
2022-09-20T18:21:39.595Z,75.63
2022-09-20T18:24:07.306Z,75.83
2022-09-20T18:26:34.650Z,75.51
2022-09-20T18:29:11.156Z,75.62
2022-09-20T18:31:49.662Z,76.44
2022-09-20T18:34:18.830Z,76.45
2022-09-20T18:36:48.303Z,77.03
2022-09-20T18:39:14.648Z,77.01
2022-09-20T18:41:43.038Z,76.85
2022-09-20T18:44:12.365Z,76.57
2022-09-20T18:46:39.009Z,77.25
2022-09-20T18:49:08.265Z,77.65
2022-09-20T18:51:39.432Z,77.89
2022-09-20T18:54:08.852Z,78.21
2022-09-20T18:56:36.724Z,78.48
2022-09-20T18:59:06.546Z,78.52
2022-09-20T19:01:41.930Z,79.01
2022-09-20T19:04:30.237Z,79.09
2022-09-20T19:07:12.711Z,78.94
2022-09-20T19:09:51.363Z,79.02
2022-09-20T19:12:25.241Z,78.95
2022-09-20T19:15:17.409Z,78.84
2022-09-20T19:18:22.919Z,79.41
2022-09-20T19:21:24.358Z,80.07
2022-09-20T19:24:28.155Z,80.10
2022-09-20T19:26:54.985Z,80.17
2022-09-20T19:29:25.300Z,80.56
2022-09-20T19:31:55.464Z,80.85
2022-09-20T19:34:25.289Z,80.72
2022-09-20T19:37:18.671Z,80.66
2022-09-20T19:40:08.740Z,80.16
2022-09-20T19:43:00.388Z,80.38
2022-09-20T19:45:52.160Z,80.77
2022-09-20T19:48:40.184Z,80.87
2022-09-20T19:51:11.448Z,80.83
2022-09-20T19:53:39.182Z,80.99
2022-09-20T19:56:17.731Z,81.35
2022-09-20T19:58:44.890Z,81.42
2022-09-20T20:01:11.768Z,81.58
2022-09-20T20:03:38.847Z,81.65
2022-09-20T20:06:13.134Z,81.59
2022-09-20T20:08:54.921Z,81.76
2022-09-20T20:11:36.115Z,81.92
2022-09-20T20:14:12.784Z,82.12
2022-09-20T20:16:55.008Z,81.93
2022-09-20T20:19:46.473Z,81.86
2022-09-20T20:22:37.472Z,81.74
2022-09-20T20:25:04.372Z,81.44
2022-09-20T20:27:32.421Z,81.65
2022-09-20T20:29:58.750Z,81.57
2022-09-20T20:32:26.155Z,81.63
2022-09-20T20:34:52.541Z,81.83
2022-09-20T20:37:19.721Z,82.14
2022-09-20T20:39:46.210Z,82.08
2022-09-20T20:42:12.693Z,81.73
2022-09-20T20:44:39.070Z,81.83
2022-09-20T20:47:06.849Z,82.21
2022-09-20T20:49:33.365Z,82.37
2022-09-20T20:52:04.208Z,82.60
2022-09-20T20:54:31.256Z,82.61
2022-09-20T20:56:58.587Z,82.52
2022-09-20T20:59:25.270Z,82.51
2022-09-20T21:01:51.674Z,82.48
2022-09-20T21:04:18.174Z,82.50
2022-09-20T21:06:44.927Z,82.61
2022-09-20T21:09:12.140Z,82.45
2022-09-20T21:11:43.995Z,82.33
2022-09-20T21:14:12.415Z,82.44
2022-09-20T21:16:44.182Z,82.64
2022-09-20T21:19:18.106Z,83.01
2022-09-20T21:21:47.686Z,83.36
2022-09-20T21:24:17.154Z,83.23
2022-09-20T21:26:44.413Z,83.48
2022-09-20T21:29:12.437Z,82.91
2022-09-20T21:31:41.563Z,82.75
2022-09-20T21:34:09.334Z,82.85
2022-09-20T21:36:37.421Z,82.60
2022-09-20T21:39:04.921Z,82.73
2022-09-20T21:41:33.841Z,82.85
2022-09-20T21:44:02.169Z,83.08
2022-09-20T21:46:31.531Z,83.28
2022-09-20T21:49:00.697Z,83.35
2022-09-20T21:51:30.916Z,83.40
2022-09-20T21:53:59.465Z,83.68
2022-09-20T21:56:27.643Z,83.57
2022-09-20T21:58:54.873Z,83.75
2022-09-20T22:01:26.730Z,83.91
2022-09-20T22:04:00.069Z,84.01
2022-09-20T22:06:36.399Z,84.22
2022-09-20T22:09:14.543Z,84.33
2022-09-20T22:11:47.117Z,84.13
2022-09-20T22:14:15.460Z,84.14
2022-09-20T22:16:43.778Z,84.39
2022-09-20T22:19:12.321Z,84.55
2022-09-20T22:21:41.407Z,84.41
2022-09-20T22:24:10.473Z,84.52
2022-09-20T22:26:39.600Z,84.46
2022-09-20T22:29:06.926Z,84.84
2022-09-20T22:31:37.211Z,84.54
2022-09-20T22:34:05.909Z,84.76
2022-09-20T22:36:35.019Z,84.64
2022-09-20T22:39:02.580Z,85.04
2022-09-20T22:41:29.294Z,84.88
2022-09-20T22:43:56.570Z,84.90
2022-09-20T22:46:26.115Z,84.82
2022-09-20T22:48:53.381Z,84.90
2022-09-20T22:51:22.580Z,84.96
2022-09-20T22:53:49.389Z,84.69
2022-09-20T22:56:30.418Z,84.80
2022-09-20T22:59:08.346Z,84.88
2022-09-20T23:01:37.666Z,84.39
2022-09-20T23:04:09.918Z,84.41
2022-09-20T23:06:39.505Z,84.39
2022-09-20T23:09:08.655Z,84.76
2022-09-20T23:11:36.143Z,85.12
2022-09-20T23:14:07.208Z,84.82
2022-09-20T23:16:36.028Z,84.83
2022-09-20T23:19:05.147Z,84.96
2022-09-20T23:21:32.860Z,85.17
2022-09-20T23:24:01.996Z,85.49
2022-09-20T23:26:31.181Z,85.52
2022-09-20T23:29:00.592Z,85.51
2022-09-20T23:31:29.043Z,85.57
2022-09-20T23:33:57.992Z,85.66
2022-09-20T23:36:26.195Z,85.67
2022-09-20T23:38:53.481Z,85.79
2022-09-20T23:41:21.808Z,85.84
2022-09-20T23:43:48.741Z,85.51
2022-09-20T23:46:17.480Z,85.96
2022-09-20T23:48:44.363Z,85.93
2022-09-20T23:51:13.542Z,86.12
2022-09-20T23:53:40.804Z,85.74
2022-09-20T23:56:09.153Z,85.64
2022-09-20T23:58:37.108Z,85.81
